Gambill, Indiana
Current Conditions -  °F | °C
As of 11:35 PM on Tuesday 21 Oct 2014 (Local Time) from KRSV Reporting Station
Clear Clear  
Wind Chill: 44°   Ceiling: Unl
Heat Index: 48°   Visibility: 10mi
Dew Point: 45°   Wind: 8mph
Humidity: 90%   Direction: 10°N
Pressure: 30.22"   Gusts: NA
Location:  39.0631°N, 87.2571°W
Report Text: KRSV 220335Z AUTO 01007KT 10SM CLR 09/07 A3022 RMK AO2 T00880073
Loading
Personal Weather Stations






























Interactive Weather Map
Tropical Storm Tracking
New forecast layout! Learn more

10-Day Weather Forecast

Advertisements
Track Severe Weather on mobile